createdAt,value
2023-04-03T00:03:46.681Z,89.5
2023-04-03T00:08:52.064Z,89.5
2023-04-03T00:13:58.297Z,89
2023-04-03T00:19:04.461Z,89.5
2023-04-03T00:24:10.657Z,89.5
2023-04-03T00:29:16.897Z,90
2023-04-03T00:34:23.032Z,90.5
2023-04-03T00:39:29.218Z,90
2023-04-03T00:44:35.445Z,90
2023-04-03T00:49:41.609Z,91
2023-04-03T00:54:47.772Z,91
2023-04-03T00:59:53.846Z,90.5
2023-04-03T01:05:00.051Z,91.5
2023-04-03T01:10:06.505Z,92
2023-04-03T01:15:11.563Z,92
2023-04-03T01:20:17.683Z,91.5
2023-04-03T01:25:23.944Z,91.5
2023-04-03T01:30:30.177Z,91.5
2023-04-03T01:35:36.276Z,91.5
2023-04-03T01:40:46.804Z,92
2023-04-03T01:45:48.809Z,92
2023-04-03T01:50:54.997Z,92.5
2023-04-03T01:56:01.199Z,92.5
2023-04-03T02:01:07.304Z,92
2023-04-03T02:06:13.516Z,92
2023-04-03T02:11:19.769Z,92
2023-04-03T02:16:25.910Z,91.5
2023-04-03T02:21:31.176Z,91.5
2023-04-03T02:26:37.240Z,92
2023-04-03T02:31:43.434Z,92
2023-04-03T02:36:49.736Z,91.5
2023-04-03T02:41:55.952Z,92
2023-04-03T02:47:02.122Z,91.5
2023-04-03T02:52:08.398Z,92
2023-04-03T02:57:14.534Z,92
2023-04-03T03:02:20.664Z,91.5
2023-04-03T03:07:26.884Z,91
2023-04-03T03:12:33.154Z,90.5
2023-04-03T03:17:39.317Z,90
2023-04-03T03:22:45.478Z,90
2023-04-03T03:27:50.656Z,90
2023-04-03T03:32:56.971Z,90.5
2023-04-03T03:38:03.095Z,90.5
2023-04-03T03:43:09.282Z,90.5
2023-04-03T03:48:15.470Z,90
2023-04-03T03:53:21.746Z,90
2023-04-03T03:58:27.069Z,90.5
2023-04-03T04:03:33.114Z,90.5
2023-04-03T04:08:39.410Z,90.5
2023-04-03T04:13:45.605Z,91
2023-04-03T04:18:51.727Z,91.5
2023-04-03T04:23:57.943Z,93
2023-04-03T04:29:04.184Z,94
2023-04-03T04:34:10.223Z,94
2023-04-03T04:39:16.412Z,94.5
2023-04-03T04:44:22.828Z,95
2023-04-03T04:49:28.969Z,95
2023-04-03T04:54:35.160Z,95
2023-04-03T04:59:41.323Z,95
2023-04-03T05:04:46.564Z,95
2023-04-03T05:09:52.625Z,95
2023-04-03T05:14:58.883Z,95
2023-04-03T05:20:05.217Z,94.5
2023-04-03T05:25:11.314Z,94.5
2023-04-03T05:30:17.481Z,93.5
2023-04-03T05:35:23.729Z,93
2023-04-03T05:40:29.910Z,93
2023-04-03T05:45:36.151Z,93
2023-04-03T05:55:48.504Z,92.5
2023-04-03T06:00:54.675Z,91
2023-04-03T06:06:00.843Z,90
2023-04-03T06:11:06.072Z,90
2023-04-03T06:16:12.256Z,89
2023-04-03T06:21:18.604Z,87.5
2023-04-03T06:26:24.685Z,87
2023-04-03T06:31:30.828Z,86.5
2023-04-03T06:36:37.140Z,85.5
2023-04-03T06:41:43.323Z,83.5
2023-04-03T06:46:49.571Z,81.5
2023-04-03T06:51:55.702Z,80
2023-04-03T06:57:01.930Z,79.5
2023-04-03T07:02:08.179Z,80
2023-04-03T07:07:14.212Z,77
2023-04-03T07:12:20.424Z,72.5
2023-04-03T07:17:25.798Z,76
2023-04-03T08:33:58.668Z,61
2023-04-03T08:39:03.853Z,59
2023-04-03T08:44:09.147Z,60
2023-04-03T08:49:15.310Z,62
2023-04-03T08:54:21.542Z,59
2023-04-03T08:59:27.809Z,45.5
2023-04-03T09:04:33.920Z,46.5
2023-04-03T09:09:40.225Z,56
2023-04-03T09:14:46.307Z,59
2023-04-03T09:19:52.388Z,52
2023-04-03T09:24:58.746Z,52.5
2023-04-03T09:30:04.875Z,46
2023-04-03T09:35:10.159Z,48
2023-04-03T09:40:15.400Z,53.5
2023-04-03T09:45:21.596Z,42.5
2023-04-03T09:50:27.690Z,43.5
2023-04-03T09:55:33.802Z,45.5
2023-04-03T10:00:40.060Z,46.5
2023-04-03T10:05:46.415Z,50
2023-04-03T10:10:52.498Z,52
2023-04-03T10:15:58.728Z,55
2023-04-03T10:21:04.879Z,51
2023-04-03T10:26:11.082Z,54.5
2023-04-03T10:31:16.226Z,52.5
2023-04-03T10:36:21.705Z,54
2023-04-03T10:41:27.755Z,53
2023-04-03T10:46:33.917Z,50.5
2023-04-03T10:51:40.176Z,49.5
2023-04-03T10:56:46.399Z,49
2023-04-03T11:01:52.593Z,53
2023-04-03T11:06:58.738Z,52
2023-04-03T11:12:04.964Z,51
2023-04-03T11:17:11.190Z,51
2023-04-03T11:22:17.351Z,47
2023-04-03T11:27:23.473Z,48
2023-04-03T11:32:29.704Z,57.5
2023-04-03T11:37:35.879Z,58.5
2023-04-03T11:42:42.139Z,57.5
2023-04-03T11:47:47.360Z,57
2023-04-03T11:52:53.515Z,56.5
2023-04-03T11:57:59.698Z,52.5
2023-04-03T12:03:05.845Z,52.5
2023-04-03T12:08:12.065Z,53.5
2023-04-03T12:13:18.299Z,50.5
2023-04-03T12:18:24.485Z,51
2023-04-03T12:23:30.668Z,50
2023-04-03T12:28:36.848Z,48
2023-04-03T12:33:42.845Z,49
2023-04-03T12:38:49.238Z,48.5
2023-04-03T12:43:55.426Z,47
2023-04-03T12:49:01.586Z,52
2023-04-03T12:54:07.782Z,53.5
2023-04-03T12:59:13.990Z,53
2023-04-03T13:04:19.113Z,52
2023-04-03T13:09:25.410Z,53
2023-04-03T13:14:31.555Z,51.5
2023-04-03T13:19:37.815Z,52
2023-04-03T13:29:50.157Z,50.5
2023-04-03T13:34:56.344Z,49
2023-04-03T13:40:02.506Z,49
2023-04-03T13:45:08.736Z,50
2023-04-03T13:50:14.846Z,52.5
2023-04-03T13:55:21.125Z,55
2023-04-03T14:00:27.346Z,49.5
2023-04-03T14:05:33.315Z,51.5
2023-04-03T14:10:38.741Z,50
2023-04-03T14:15:44.758Z,50.5
2023-04-03T14:20:50.965Z,51.5
2023-04-03T14:25:57.322Z,52
2023-04-03T14:31:03.328Z,52.5
2023-04-03T14:36:09.595Z,51
2023-04-03T14:41:15.735Z,50
2023-04-03T14:46:22.070Z,53.5
2023-04-03T14:51:28.174Z,52
2023-04-03T14:56:34.485Z,50.5
2023-04-03T15:01:40.810Z,51
2023-04-03T15:06:46.886Z,52
2023-04-03T15:11:53.055Z,53
2023-04-03T15:16:58.317Z,52.5
2023-04-03T15:22:04.287Z,53.5
2023-04-03T15:32:16.817Z,51
2023-04-03T15:37:23.105Z,50.5
2023-04-03T15:42:29.253Z,51.5
2023-04-03T15:47:35.500Z,52
2023-04-03T15:52:41.638Z,53.5
2023-04-03T15:57:47.832Z,53
2023-04-03T16:02:53.967Z,52.5
2023-04-03T16:08:00.188Z,54
2023-04-03T16:13:10.866Z,54
2023-04-03T16:18:12.573Z,53.5
2023-04-03T16:23:17.788Z,54
2023-04-03T16:28:23.994Z,56
2023-04-03T16:33:30.186Z,57
2023-04-03T16:38:36.203Z,56.5
2023-04-03T16:43:42.597Z,57
2023-04-03T16:48:48.733Z,57.5
2023-04-03T16:53:54.801Z,58.5
2023-04-03T17:04:07.209Z,59.5
2023-04-03T17:09:13.541Z,60
2023-04-03T17:14:19.767Z,60
2023-04-03T17:19:25.990Z,60
2023-04-03T17:24:32.004Z,59
2023-04-03T17:29:38.149Z,60
2023-04-03T17:34:43.563Z,60.5
2023-04-03T17:39:49.781Z,61.5
2023-04-03T17:44:55.977Z,62.5
2023-04-03T17:50:02.126Z,63
2023-04-03T17:55:08.164Z,63
2023-04-03T18:00:14.355Z,64.5
2023-04-03T18:05:20.538Z,63
2023-04-03T18:10:26.731Z,63
2023-04-03T18:15:33.051Z,63.5
2023-04-03T18:20:39.293Z,63
2023-04-03T18:25:45.476Z,64.5
2023-04-03T18:30:53.283Z,66
2023-04-03T18:35:57.893Z,65
2023-04-03T18:41:03.087Z,65
2023-04-03T18:46:09.395Z,64
2023-04-03T18:51:15.507Z,64.5
2023-04-03T18:56:21.583Z,65.5
2023-04-03T19:01:27.907Z,65.5
2023-04-03T19:06:34.112Z,66.5
2023-04-03T19:11:40.255Z,66
2023-04-03T19:16:46.495Z,66.5
2023-04-03T19:21:52.497Z,67.5
2023-04-03T19:26:58.703Z,68
2023-04-03T19:32:05.044Z,68.5
2023-04-03T19:37:11.068Z,69
2023-04-03T19:42:17.366Z,70
2023-04-03T19:47:22.510Z,70
2023-04-03T19:52:28.858Z,70
2023-04-03T19:57:35.044Z,69.5
2023-04-03T20:02:41.258Z,70
2023-04-03T20:07:47.273Z,70
2023-04-03T20:12:53.650Z,69.5
2023-04-03T20:17:59.960Z,69.5
2023-04-03T20:23:05.984Z,70
2023-04-03T20:28:12.038Z,70
2023-04-03T20:33:18.248Z,70.5
2023-04-03T20:38:24.624Z,70.5
2023-04-03T20:43:30.708Z,72
2023-04-03T20:48:36.820Z,70.5
2023-04-03T20:53:43.045Z,71.5
2023-04-03T20:58:48.245Z,72
2023-04-03T21:03:53.636Z,72
2023-04-03T21:08:59.794Z,72.5
2023-04-03T21:14:06.098Z,73
2023-04-03T21:19:12.070Z,73
2023-04-03T21:24:18.489Z,74
2023-04-03T21:29:24.547Z,74
2023-04-03T21:34:30.829Z,75
2023-04-03T21:39:36.864Z,77
2023-04-03T21:44:43.063Z,76
2023-04-03T21:49:49.430Z,77
2023-04-03T21:54:55.437Z,77
2023-04-03T22:00:01.832Z,77.5
2023-04-03T22:05:07.852Z,79
2023-04-03T22:10:13.195Z,79.5
2023-04-03T22:15:19.427Z,79.5
2023-04-03T22:20:25.698Z,80
2023-04-03T22:25:31.807Z,81
2023-04-03T22:30:37.843Z,82
2023-04-03T22:35:44.211Z,81.5
2023-04-03T22:40:50.396Z,82
2023-04-03T22:45:56.446Z,82
2023-04-03T22:51:02.768Z,82.5
2023-04-03T22:56:08.978Z,82.5
2023-04-03T23:01:15.016Z,83.5
2023-04-03T23:06:21.386Z,83.5
2023-04-03T23:11:27.528Z,84
2023-04-03T23:16:32.629Z,84.5
2023-04-03T23:21:38.814Z,84.5
2023-04-03T23:26:45.011Z,85.5
2023-04-03T23:31:51.368Z,86
2023-04-03T23:36:57.554Z,86
2023-04-03T23:42:03.734Z,87
2023-04-03T23:47:09.938Z,87
2023-04-03T23:52:15.979Z,87
2023-04-03T23:57:22.356Z,87.5
